Terminal Aerodrome Forecast
Issued by NWS Jackson, MS

Home | Current Version | Previous Version | Text Only | Print | Product List | Glossary On
Versions: 1 2 3 4 5 6 7 8 9 10 11 12
917
FTUS44 KJAN 161139
TAFGWO
TAF
KGWO 161139Z 1612/1712 18006KT P6SM SKC
     FM171000 VRB04KT 4SM SHRA BKN015 OVC025=

USA.gov is the U.S. government's official web portal to all federal, state and local government web resources and services.